Time;durP1;ratioP1;P1;durP2;ratioP2;P2;SDS_P1;SDS_P2;PMS_P1;PMS_P2;Temp;Humidity;BMP_temperature;BMP_pressure;BME280_temperature;BME280_humidity;BME280_pressure;Samples;Min_cycle;Max_cycle;Signal;HPM_P1;HPM_P2
2024/03/06 00:00:45;;;;;;;9.60;7.43;;;6.50;99.90;;;;;;5051132;28;20232;-67
2024/03/06 00:03:11;;;;;;;7.83;6.87;;;6.50;99.90;;;;;;5047638;22;20655;-67
2024/03/06 00:05:36;;;;;;;8.67;6.10;;;6.50;99.90;;;;;;4999550;28;20179;-67
2024/03/06 00:08:03;;;;;;;7.43;6.47;;;6.50;99.90;;;;;;5005479;28;20182;-67
2024/03/06 00:10:29;;;;;;;9.23;7.90;;;6.50;99.90;;;;;;5001984;28;20560;-67
2024/03/06 00:12:54;;;;;;;6.93;6.20;;;6.50;99.90;;;;;;5001840;28;20463;-67
2024/03/06 00:15:20;;;;;;;7.13;6.43;;;6.60;99.90;;;;;;4994810;28;20229;-67
2024/03/06 00:17:46;;;;;;;7.63;6.80;;;6.60;99.90;;;;;;4996443;28;20219;-67
2024/03/06 00:20:12;;;;;;;6.90;5.23;;;6.60;99.90;;;;;;4995817;28;20259;-67
2024/03/06 00:22:37;;;;;;;6.53;5.67;;;6.60;99.90;;;;;;5007775;28;21007;-67
2024/03/06 00:25:03;;;;;;;5.30;4.80;;;6.60;99.90;;;;;;4998784;28;20214;-67
2024/03/06 00:27:29;;;;;;;6.10;5.33;;;6.60;99.90;;;;;;4998868;28;20190;-67
2024/03/06 00:29:54;;;;;;;7.00;5.27;;;6.50;99.90;;;;;;5007531;28;20644;-67
2024/03/06 00:32:20;;;;;;;6.73;5.20;;;6.50;99.90;;;;;;4993257;28;20199;-67
2024/03/06 00:34:45;;;;;;;7.67;5.90;;;6.60;99.90;;;;;;4994835;28;20258;-67
2024/03/06 00:37:11;;;;;;;7.03;5.97;;;6.60;99.90;;;;;;4998836;28;20691;-67
2024/03/06 00:39:36;;;;;;;6.17;5.57;;;6.60;99.90;;;;;;4996838;28;20232;-67
2024/03/06 00:42:02;;;;;;;6.00;5.40;;;6.60;99.90;;;;;;5012540;28;20222;-67
2024/03/06 00:44:28;;;;;;;9.53;6.00;;;6.70;99.90;;;;;;5002646;28;20175;-67
2024/03/06 00:46:53;;;;;;;5.90;5.37;;;6.60;99.90;;;;;;4996770;28;20970;-67
2024/03/06 00:49:19;;;;;;;6.23;5.20;;;6.70;99.90;;;;;;5003895;28;20187;-67
2024/03/06 00:51:44;;;;;;;6.53;5.83;;;6.60;99.90;;;;;;4991859;28;20210;-67
2024/03/06 00:54:10;;;;;;;5.97;5.40;;;6.60;99.90;;;;;;5002316;28;20175;-67
2024/03/06 00:56:39;;;;;;;6.13;5.53;;;6.60;99.90;;;;;;5003804;28;20236;-67
2024/03/06 00:59:05;;;;;;;5.90;5.30;;;6.50;99.90;;;;;;4994899;28;20719;-67
2024/03/06 01:01:30;;;;;;;9.13;5.13;;;6.50;99.90;;;;;;4993951;28;20466;-67
2024/03/06 01:03:56;;;;;;;7.73;5.30;;;6.50;99.90;;;;;;4998614;28;20508;-67
2024/03/06 01:06:22;;;;;;;5.90;4.60;;;6.50;99.90;;;;;;5000177;28;20210;-67
2024/03/06 01:08:47;;;;;;;4.93;4.50;;;6.40;99.90;;;;;;4997853;28;20632;-67
2024/03/06 01:11:14;;;;;;;5.50;5.00;;;6.50;99.90;;;;;;4993925;28;20206;-67
2024/03/06 01:13:40;;;;;;;4.00;3.70;;;6.50;99.90;;;;;;4994315;28;20703;-67
2024/03/06 01:16:06;;;;;;;5.30;4.03;;;6.40;99.90;;;;;;5000869;28;20436;-67
2024/03/06 01:18:32;;;;;;;6.93;3.73;;;6.50;99.90;;;;;;4999376;28;20994;-67
2024/03/06 01:20:58;;;;;;;4.70;4.17;;;6.50;99.90;;;;;;5000559;28;20442;-67
2024/03/06 01:23:23;;;;;;;6.07;4.77;;;6.50;99.90;;;;;;4998738;28;21015;-67
2024/03/06 01:25:49;;;;;;;6.13;4.90;;;6.50;99.90;;;;;;5000552;28;20223;-67
2024/03/06 01:28:14;;;;;;;4.50;3.90;;;6.50;99.90;;;;;;4996300;28;20183;-67
2024/03/06 01:30:40;;;;;;;3.80;3.27;;;6.50;99.90;;;;;;4993581;28;20175;-67
2024/03/06 01:33:06;;;;;;;5.63;4.40;;;6.40;99.90;;;;;;4993424;28;20211;-67
2024/03/06 01:35:31;;;;;;;4.10;3.80;;;6.50;99.90;;;;;;4997020;28;20174;-67
2024/03/06 01:37:58;;;;;;;4.50;4.10;;;6.40;99.90;;;;;;5003524;28;20465;-67
2024/03/06 01:40:23;;;;;;;4.50;4.10;;;6.40;99.90;;;;;;4995985;28;20175;-67
2024/03/06 01:42:49;;;;;;;4.50;3.77;;;6.40;99.90;;;;;;5009231;28;21050;-67
2024/03/06 01:45:15;;;;;;;4.70;4.20;;;6.40;99.90;;;;;;4998326;28;20248;-67
2024/03/06 01:47:40;;;;;;;6.10;3.93;;;6.40;99.90;;;;;;4997676;28;20183;-67
2024/03/06 01:50:08;;;;;;;6.83;3.80;;;6.40;99.90;;;;;;4992753;28;20215;-67
2024/03/06 01:52:35;;;;;;;4.67;4.27;;;6.30;99.90;;;;;;4994919;28;20203;-67
2024/03/06 01:55:01;;;;;;;4.97;3.80;;;6.30;99.90;;;;;;4995060;28;20529;-67
2024/03/06 01:57:27;;;;;;;5.10;4.57;;;6.30;99.90;;;;;;4999279;28;20561;-67
2024/03/06 01:59:53;;;;;;;5.13;3.77;;;6.30;99.90;;;;;;4992702;28;20807;-67
2024/03/06 02:02:20;;;;;;;5.40;4.37;;;6.40;99.90;;;;;;4992471;28;20462;-67
2024/03/06 02:04:46;;;;;;;4.50;4.10;;;6.30;99.90;;;;;;4992062;28;20175;-67
2024/03/06 02:07:14;;;;;;;3.87;3.57;;;6.40;99.90;;;;;;4988488;28;20460;-67
2024/03/06 02:09:39;;;;;;;5.17;4.07;;;6.40;99.90;;;;;;5003293;28;20429;-67
2024/03/06 02:12:09;;;;;;;5.00;4.10;;;6.40;99.90;;;;;;4989266;28;20549;-67
2024/03/06 02:14:37;;;;;;;4.43;3.50;;;6.40;99.90;;;;;;4994190;28;20189;-67
2024/03/06 02:17:03;;;;;;;4.70;3.80;;;6.40;99.90;;;;;;4996655;28;20980;-67
2024/03/06 02:19:42;;;;;;;4.17;3.50;;;6.50;99.90;;;;;;4991881;28;20456;-67
2024/03/06 02:22:08;;;;;;;6.37;3.60;;;6.50;99.90;;;;;;4996009;28;20203;-67
2024/03/06 02:24:35;;;;;;;5.13;3.47;;;6.60;99.90;;;;;;5006301;28;20450;-67
2024/03/06 02:27:00;;;;;;;3.20;2.90;;;6.60;99.90;;;;;;5000493;28;20438;-67
2024/03/06 02:29:26;;;;;;;3.63;3.33;;;6.60;99.90;;;;;;5001339;28;20434;-67
2024/03/06 02:31:52;;;;;;;3.63;2.90;;;6.60;99.90;;;;;;4980246;28;20673;-67
2024/03/06 02:34:17;;;;;;;3.93;3.63;;;6.60;99.90;;;;;;4997702;28;20184;-67
2024/03/06 02:36:43;;;;;;;4.73;3.60;;;6.70;99.90;;;;;;4994153;28;20464;-67
2024/03/06 02:39:08;;;;;;;3.37;2.87;;;6.60;99.90;;;;;;4990699;28;20642;-67
2024/03/06 02:41:36;;;;;;;3.93;3.63;;;6.60;99.90;;;;;;4997286;28;20216;-67
2024/03/06 02:44:01;;;;;;;3.30;3.00;;;6.60;99.90;;;;;;5007888;28;20191;-67
2024/03/06 02:46:27;;;;;;;6.80;3.53;;;6.60;99.90;;;;;;4998715;28;20437;-67
2024/03/06 02:48:52;;;;;;;3.70;3.17;;;6.60;99.90;;;;;;4994963;28;20254;-67
2024/03/06 02:51:19;;;;;;;4.73;4.33;;;6.60;99.90;;;;;;4998900;28;20180;-67
2024/03/06 02:53:45;;;;;;;4.07;3.77;;;6.50;99.90;;;;;;4993952;28;20199;-67
2024/03/06 02:56:16;;;;;;;3.90;3.50;;;6.50;99.90;;;;;;4991273;28;20509;-67
2024/03/06 02:58:42;;;;;;;5.17;3.83;;;6.50;99.90;;;;;;4994959;28;20273;-67
2024/03/06 03:01:09;;;;;;;4.10;3.70;;;6.60;99.90;;;;;;4991870;28;20462;-67
2024/03/06 03:03:34;;;;;;;4.33;3.43;;;6.60;99.90;;;;;;5000346;28;20199;-67
2024/03/06 03:06:00;;;;;;;4.10;3.70;;;6.60;99.90;;;;;;4998288;28;20948;-67
2024/03/06 03:08:26;;;;;;;5.07;3.53;;;6.60;99.90;;;;;;5004069;28;20817;-67
2024/03/06 03:10:51;;;;;;;3.83;3.23;;;6.60;99.90;;;;;;5003609;28;20465;-67
2024/03/06 03:13:17;;;;;;;3.63;3.30;;;6.60;99.90;;;;;;4985782;28;20212;-67
2024/03/06 03:15:42;;;;;;;3.50;3.20;;;6.60;99.90;;;;;;4993527;28;20187;-67
2024/03/06 03:18:08;;;;;;;7.37;3.50;;;6.60;99.90;;;;;;5001366;28;20754;-67
2024/03/06 03:20:34;;;;;;;6.70;3.43;;;6.60;99.90;;;;;;5000977;28;20179;-67
2024/03/06 03:23:01;;;;;;;4.03;3.63;;;6.70;99.90;;;;;;4997575;28;20204;-67
2024/03/06 03:25:27;;;;;;;5.80;2.93;;;6.60;99.90;;;;;;4995751;28;20625;-67
2024/03/06 03:27:52;;;;;;;5.77;3.70;;;6.60;99.90;;;;;;5002545;28;20478;-66
2024/03/06 03:30:21;;;;;;;5.63;4.93;;;6.60;99.90;;;;;;5004148;28;20211;-67
2024/03/06 03:32:47;;;;;;;3.90;3.10;;;6.60;99.90;;;;;;4994462;28;20211;-67
2024/03/06 03:35:13;;;;;;;5.27;3.53;;;6.60;99.90;;;;;;4998077;28;20439;-67
2024/03/06 03:37:38;;;;;;;5.00;4.13;;;6.60;99.90;;;;;;4996541;28;20469;-67
2024/03/06 03:40:05;;;;;;;4.63;3.37;;;6.70;99.90;;;;;;4997811;28;20238;-67
2024/03/06 03:42:30;;;;;;;3.87;3.47;;;6.60;99.90;;;;;;5002856;28;20838;-67
2024/03/06 03:44:56;;;;;;;6.00;3.03;;;6.60;99.90;;;;;;4994488;28;20415;-67
2024/03/06 03:47:22;;;;;;;3.87;3.57;;;6.70;99.90;;;;;;5001053;28;20187;-67
2024/03/06 03:49:47;;;;;;;3.90;3.37;;;6.70;99.90;;;;;;5002231;28;20691;-67
2024/03/06 03:52:13;;;;;;;3.93;3.37;;;6.60;99.90;;;;;;5005421;28;20575;-67
2024/03/06 03:54:39;;;;;;;4.30;3.60;;;6.60;99.90;;;;;;5015177;28;20178;-67
2024/03/06 03:57:06;;;;;;;6.80;4.10;;;6.60;99.90;;;;;;4999297;28;20457;-67
2024/03/06 03:59:32;;;;;;;6.53;3.40;;;6.60;99.90;;;;;;5000977;28;20168;-67
2024/03/06 04:01:58;;;;;;;6.13;3.37;;;6.60;99.90;;;;;;5003598;28;20425;-67
2024/03/06 04:04:23;;;;;;;5.47;4.00;;;6.60;99.90;;;;;;5010078;28;20715;-67
2024/03/06 04:06:49;;;;;;;4.57;3.10;;;6.60;99.90;;;;;;5002374;28;20230;-67
2024/03/06 04:09:14;;;;;;;4.77;3.87;;;6.70;99.90;;;;;;5010651;28;20213;-67
2024/03/06 04:11:40;;;;;;;5.10;3.90;;;6.70;99.90;;;;;;4996339;28;20187;-67
2024/03/06 04:14:06;;;;;;;3.57;3.20;;;6.70;99.90;;;;;;4998874;28;20239;-67
2024/03/06 04:16:32;;;;;;;4.40;4.00;;;6.70;99.90;;;;;;5013866;28;20171;-67
2024/03/06 04:18:58;;;;;;;5.50;3.80;;;6.70;99.90;;;;;;4997164;28;20172;-67
2024/03/06 04:21:23;;;;;;;6.10;4.77;;;6.60;99.90;;;;;;4999196;28;20507;-67
2024/03/06 04:23:48;;;;;;;4.60;3.13;;;6.60;99.90;;;;;;5001608;28;20210;-67
2024/03/06 04:26:14;;;;;;;4.30;3.50;;;6.60;99.90;;;;;;5003468;28;20652;-67
2024/03/06 04:28:40;;;;;;;6.23;3.73;;;6.60;99.90;;;;;;4993167;28;20700;-67
2024/03/06 04:31:05;;;;;;;4.73;3.70;;;6.60;99.90;;;;;;5001833;28;20186;-67
2024/03/06 04:33:31;;;;;;;5.03;3.60;;;6.60;99.90;;;;;;4998596;28;20239;-67
2024/03/06 04:35:56;;;;;;;7.33;4.00;;;6.60;99.90;;;;;;4996989;28;20192;-67
2024/03/06 04:38:22;;;;;;;3.67;3.37;;;6.60;99.90;;;;;;5004578;28;20203;-67
2024/03/06 04:40:47;;;;;;;4.33;3.57;;;6.60;99.90;;;;;;5007073;28;20277;-67
2024/03/06 04:43:13;;;;;;;3.23;3.03;;;6.60;99.90;;;;;;5005900;28;20592;-67
2024/03/06 04:45:39;;;;;;;5.97;4.17;;;6.60;99.90;;;;;;5009514;28;20545;-67
2024/03/06 04:48:05;;;;;;;4.83;3.30;;;6.60;99.90;;;;;;4998386;28;20184;-67
2024/03/06 04:50:31;;;;;;;4.97;4.30;;;6.60;99.90;;;;;;5001830;28;20249;-67
2024/03/06 04:52:56;;;;;;;4.07;3.77;;;6.50;99.90;;;;;;5000556;28;20981;-67
2024/03/06 04:55:22;;;;;;;4.50;4.10;;;6.60;99.90;;;;;;4993553;28;20175;-67
2024/03/06 04:57:48;;;;;;;4.10;3.70;;;6.60;99.90;;;;;;5000427;28;20202;-67
2024/03/06 05:00:14;;;;;;;6.30;5.03;;;6.60;99.90;;;;;;4986132;28;20423;-67
2024/03/06 05:02:41;;;;;;;4.63;4.23;;;6.60;99.90;;;;;;4981421;28;20459;-67
2024/03/06 05:05:08;;;;;;;5.17;4.67;;;6.60;99.90;;;;;;4982096;28;20445;-67
2024/03/06 05:07:34;;;;;;;5.60;4.97;;;6.60;99.90;;;;;;5003999;28;20473;-67
2024/03/06 05:09:59;;;;;;;5.80;4.80;;;6.60;99.90;;;;;;5002070;28;20902;-67
2024/03/06 05:12:26;;;;;;;8.13;5.10;;;6.60;99.90;;;;;;5002439;28;20278;-66
2024/03/06 05:14:52;;;;;;;5.07;4.57;;;6.60;99.90;;;;;;5001199;28;20419;-67
2024/03/06 05:17:18;;;;;;;4.73;4.20;;;6.60;99.90;;;;;;4996937;28;20454;-67
2024/03/06 05:19:45;;;;;;;6.03;5.43;;;6.70;99.90;;;;;;4997398;28;20419;-67
2024/03/06 05:22:13;;;;;;;5.00;4.40;;;6.60;99.90;;;;;;4995080;28;20508;-67
2024/03/06 05:24:39;;;;;;;8.33;5.43;;;6.60;99.90;;;;;;4994205;28;20426;-67
2024/03/06 05:27:05;;;;;;;6.10;5.00;;;6.60;99.90;;;;;;5001618;28;20442;-67
2024/03/06 05:29:31;;;;;;;8.10;6.13;;;6.60;99.90;;;;;;5002041;28;20423;-67
2024/03/06 05:31:56;;;;;;;8.97;5.80;;;6.50;99.90;;;;;;5001550;28;20667;-67
2024/03/06 05:34:22;;;;;;;6.60;5.10;;;6.50;99.90;;;;;;5001882;28;20660;-67
2024/03/06 05:36:48;;;;;;;6.30;5.70;;;6.50;99.90;;;;;;5002767;28;20266;-67
2024/03/06 05:39:14;;;;;;;7.10;5.23;;;6.50;99.90;;;;;;4996007;28;20981;-67
2024/03/06 05:41:41;;;;;;;5.67;5.17;;;6.50;99.90;;;;;;5002839;28;20178;-67
2024/03/06 05:44:06;;;;;;;7.27;5.23;;;6.40;99.90;;;;;;5004667;28;20229;-67
2024/03/06 05:46:32;;;;;;;8.07;6.13;;;6.30;99.90;;;;;;5001700;28;21029;-67
2024/03/06 05:48:58;;;;;;;7.97;6.13;;;6.30;99.90;;;;;;4994332;28;20258;-67
2024/03/06 05:51:23;;;;;;;6.87;6.27;;;6.40;99.90;;;;;;4989865;28;20442;-67
2024/03/06 05:53:49;;;;;;;9.50;6.50;;;6.50;99.90;;;;;;4988576;28;20200;-67
2024/03/06 05:56:14;;;;;;;7.87;5.97;;;6.50;99.90;;;;;;4994748;28;20182;-67
2024/03/06 05:58:40;;;;;;;7.50;6.67;;;6.50;99.90;;;;;;5011204;28;20285;-67
2024/03/06 06:01:05;;;;;;;9.87;5.73;;;6.50;99.90;;;;;;5006279;28;20187;-67
2024/03/06 06:03:31;;;;;;;6.70;5.97;;;6.50;99.90;;;;;;5004870;28;20206;-67
2024/03/06 06:05:56;;;;;;;6.43;5.73;;;6.40;99.90;;;;;;5004964;28;20206;-66
2024/03/06 06:08:22;;;;;;;12.63;6.90;;;6.40;99.90;;;;;;5003770;28;20179;-67
2024/03/06 06:10:48;;;;;;;8.80;6.40;;;6.40;99.90;;;;;;5000686;28;20656;-67
2024/03/06 06:13:14;;;;;;;9.13;6.33;;;6.40;99.90;;;;;;5003398;28;20206;-66
2024/03/06 06:15:40;;;;;;;9.20;6.60;;;6.40;99.90;;;;;;5012817;28;20249;-68
2024/03/06 06:18:05;;;;;;;8.63;7.17;;;6.40;99.90;;;;;;5011640;28;20547;-66
2024/03/06 06:20:31;;;;;;;11.00;6.33;;;6.40;99.90;;;;;;5002112;28;20182;-66
2024/03/06 06:22:57;;;;;;;8.30;6.87;;;6.40;99.90;;;;;;5003382;28;20206;-66
2024/03/06 06:25:23;;;;;;;12.17;7.23;;;6.40;99.90;;;;;;4989849;28;20177;-66
2024/03/06 06:27:49;;;;;;;9.53;7.30;;;6.50;99.90;;;;;;4989177;28;20430;-66
2024/03/06 06:30:18;;;;;;;7.40;6.70;;;6.50;99.90;;;;;;4991799;28;20189;-67
2024/03/06 06:32:43;;;;;;;8.70;7.63;;;6.50;99.90;;;;;;5000513;28;20454;-66
2024/03/06 06:35:15;;;;;;;8.80;6.80;;;6.50;99.90;;;;;;4992215;28;20441;-67
2024/03/06 06:37:41;;;;;;;9.40;7.50;;;6.50;99.90;;;;;;4999800;28;20196;-67
2024/03/06 06:40:07;;;;;;;7.83;7.00;;;6.50;99.90;;;;;;4986506;28;20428;-67
2024/03/06 06:42:34;;;;;;;8.87;6.40;;;6.40;99.90;;;;;;4973107;28;20439;-67
2024/03/06 06:45:00;;;;;;;8.43;7.53;;;6.40;99.90;;;;;;4998249;28;20438;-67
2024/03/06 06:47:26;;;;;;;13.40;7.93;;;6.50;99.90;;;;;;4990193;28;20438;-67
2024/03/06 06:49:51;;;;;;;8.53;7.20;;;6.50;99.90;;;;;;4995786;28;20464;-67
2024/03/06 06:52:17;;;;;;;11.43;7.83;;;6.60;99.90;;;;;;4972662;28;20212;-67
2024/03/06 06:54:42;;;;;;;12.00;8.60;;;6.60;99.90;;;;;;4973351;28;20176;-67
2024/03/06 06:57:08;;;;;;;12.63;10.40;;;6.50;99.90;;;;;;4994468;28;20242;-67
2024/03/06 06:59:34;;;;;;;10.53;7.27;;;6.60;99.90;;;;;;5028096;28;20219;-67
2024/03/06 07:02:00;;;;;;;8.93;8.03;;;6.60;99.90;;;;;;4990167;28;20172;-67
2024/03/06 07:04:25;;;;;;;12.20;8.50;;;6.60;99.90;;;;;;4976953;28;20924;-67
2024/03/06 07:06:51;;;;;;;11.00;8.77;;;6.70;99.90;;;;;;4976116;28;20175;-67
2024/03/06 07:09:18;;;;;;;9.73;8.63;;;6.70;99.90;;;;;;4976916;28;20176;-67
2024/03/06 07:11:44;;;;;;;9.20;7.97;;;6.70;99.90;;;;;;4977987;28;20188;-67
2024/03/06 07:14:10;;;;;;;11.93;10.50;;;6.70;99.90;;;;;;4976858;28;20507;-67
2024/03/06 07:16:42;;;;;;;10.57;8.73;;;6.80;99.90;;;;;;4975866;28;20598;-67
2024/03/06 07:19:07;;;;;;;9.27;6.37;;;6.90;99.90;;;;;;4976638;28;20175;-67
2024/03/06 07:21:33;;;;;;;11.10;7.90;;;6.90;99.90;;;;;;4975391;28;20423;-67
2024/03/06 07:23:58;;;;;;;11.80;7.50;;;6.90;99.90;;;;;;4976438;28;20612;-67
2024/03/06 07:26:25;;;;;;;11.63;7.83;;;7.00;99.90;;;;;;4977057;28;20172;-67
2024/03/06 07:28:52;;;;;;;8.63;7.73;;;7.10;99.90;;;;;;4976480;28;20173;-67
2024/03/06 07:31:18;;;;;;;8.53;7.73;;;7.20;99.90;;;;;;4976402;28;20423;-67
2024/03/06 07:33:43;;;;;;;8.10;7.40;;;7.10;99.90;;;;;;4989499;28;20466;-67
2024/03/06 07:36:09;;;;;;;11.70;9.90;;;7.20;99.90;;;;;;4995661;28;20453;-67
2024/03/06 07:38:35;;;;;;;11.10;9.17;;;7.20;99.90;;;;;;4995002;28;20211;-67
2024/03/06 07:41:00;;;;;;;9.43;8.40;;;7.30;99.90;;;;;;4994063;28;20168;-67
2024/03/06 07:43:26;;;;;;;13.50;8.67;;;7.30;99.90;;;;;;4995662;28;20203;-67
2024/03/06 07:45:52;;;;;;;10.47;9.40;;;7.30;99.90;;;;;;4995759;28;20262;-67
2024/03/06 07:48:17;;;;;;;10.63;9.50;;;7.30;99.90;;;;;;4994856;28;20987;-67
2024/03/06 07:50:43;;;;;;;10.77;9.10;;;7.20;99.90;;;;;;4992327;28;20227;-67
2024/03/06 07:53:08;;;;;;;11.77;9.73;;;7.10;99.90;;;;;;4976087;28;20208;-67
2024/03/06 07:55:34;;;;;;;9.67;8.77;;;7.00;99.90;;;;;;4976130;28;20650;-67
2024/03/06 07:57:59;;;;;;;12.63;10.20;;;7.00;99.90;;;;;;4976355;28;20654;-67
2024/03/06 08:00:25;;;;;;;11.00;9.23;;;7.10;99.90;;;;;;4976047;28;20607;-67
2024/03/06 08:02:51;;;;;;;11.77;10.63;;;7.10;99.90;;;;;;4975902;28;20227;-67
2024/03/06 08:05:17;;;;;;;12.60;11.40;;;7.10;99.90;;;;;;4986266;28;20676;-67
2024/03/06 08:07:44;;;;;;;11.60;10.53;;;7.20;99.90;;;;;;4993662;28;20192;-67
2024/03/06 08:10:13;;;;;;;12.70;11.40;;;7.30;99.90;;;;;;4995354;28;20419;-67
2024/03/06 08:12:42;;;;;;;12.47;10.23;;;7.30;99.90;;;;;;4993541;28;20450;-67
2024/03/06 08:15:12;;;;;;;11.03;10.07;;;7.30;99.90;;;;;;4995222;28;20445;-67
2024/03/06 08:17:44;;;;;;;10.43;9.43;;;7.30;99.90;;;;;;4994288;28;20528;-67
2024/03/06 08:20:11;;;;;;;15.80;11.47;;;7.30;99.90;;;;;;4995114;28;20417;-67
2024/03/06 08:22:38;;;;;;;11.37;10.17;;;7.30;99.90;;;;;;4981377;28;20450;-67
2024/03/06 08:25:11;;;;;;;11.13;9.93;;;7.30;99.90;;;;;;4992650;28;20429;-67
2024/03/06 08:27:39;;;;;;;11.60;10.50;;;7.30;99.90;;;;;;4992467;28;20430;-67
2024/03/06 08:30:06;;;;;;;11.50;10.47;;;7.30;99.90;;;;;;4994941;28;20501;-67
2024/03/06 08:32:34;;;;;;;10.03;9.13;;;7.20;99.90;;;;;;4994673;28;20445;-67
2024/03/06 08:35:07;;;;;;;8.93;8.10;;;7.20;99.90;;;;;;4977311;28;20435;-67
2024/03/06 08:37:33;;;;;;;11.00;9.63;;;7.10;99.90;;;;;;4974557;28;20863;-67
2024/03/06 08:39:59;;;;;;;8.97;7.80;;;7.10;99.90;;;;;;4975432;28;20503;-67
2024/03/06 08:42:25;;;;;;;14.67;9.10;;;7.20;99.90;;;;;;4982931;28;20451;-67
2024/03/06 08:44:51;;;;;;;11.13;7.77;;;7.20;99.90;;;;;;4994558;28;20503;-67
2024/03/06 08:47:16;;;;;;;8.97;8.13;;;7.30;99.90;;;;;;4993817;28;20176;-67
2024/03/06 08:49:42;;;;;;;8.30;7.33;;;7.30;99.90;;;;;;4994564;28;20858;-67
2024/03/06 08:52:09;;;;;;;8.50;7.27;;;7.30;99.90;;;;;;4987960;28;20251;-67
2024/03/06 08:54:35;;;;;;;9.30;7.77;;;7.30;99.90;;;;;;4975013;28;20184;-67
2024/03/06 08:57:02;;;;;;;8.93;8.13;;;7.20;99.90;;;;;;4975278;28;20505;-68
2024/03/06 08:59:28;;;;;;;7.60;6.80;;;7.30;99.90;;;;;;4974857;28;20423;-67
2024/03/06 09:01:55;;;;;;;10.53;8.37;;;7.30;99.90;;;;;;4974709;28;20434;-67
2024/03/06 09:04:21;;;;;;;8.40;7.33;;;7.20;99.90;;;;;;4975062;28;20522;-67
2024/03/06 09:06:46;;;;;;;8.63;7.73;;;7.10;99.90;;;;;;4974042;28;20867;-67
2024/03/06 09:09:14;;;;;;;9.17;7.93;;;7.20;99.90;;;;;;4974774;28;20230;-67
2024/03/06 09:11:41;;;;;;;8.77;7.83;;;7.20;99.90;;;;;;4974725;28;20165;-67
2024/03/06 09:14:09;;;;;;;10.67;8.20;;;7.30;99.90;;;;;;4975714;28;20427;-67
2024/03/06 09:16:34;;;;;;;9.73;8.40;;;7.40;99.90;;;;;;4973682;28;20420;-67
2024/03/06 09:19:00;;;;;;;10.77;9.33;;;7.50;99.90;;;;;;4974671;28;20936;-67
2024/03/06 09:21:26;;;;;;;11.63;9.47;;;7.60;99.90;;;;;;4974147;28;20263;-68
2024/03/06 09:23:51;;;;;;;12.07;9.60;;;7.80;99.90;;;;;;4990463;28;20195;-66
2024/03/06 09:26:17;;;;;;;8.90;8.00;;;7.90;99.90;;;;;;4993672;28;20168;-66
2024/03/06 09:28:43;;;;;;;9.83;9.00;;;8.10;99.90;;;;;;4980699;28;20247;-66
2024/03/06 09:31:08;;;;;;;10.27;9.27;;;8.00;99.90;;;;;;4981972;28;20239;-66
2024/03/06 09:33:34;;;;;;;10.00;9.00;;;8.00;99.90;;;;;;4993725;28;20192;-67
2024/03/06 09:35:59;;;;;;;10.40;9.40;;;8.00;99.90;;;;;;4993704;28;20565;-67
2024/03/06 09:38:25;;;;;;;11.53;8.60;;;8.00;99.90;;;;;;4992849;28;20685;-67
2024/03/06 09:40:54;;;;;;;10.43;9.00;;;8.00;99.90;;;;;;4988107;28;20527;-67
2024/03/06 09:43:20;;;;;;;10.80;8.93;;;8.10;99.90;;;;;;4975134;28;20224;-67
2024/03/06 09:45:48;;;;;;;8.43;7.73;;;8.10;99.90;;;;;;4973984;28;20424;-67
2024/03/06 09:48:14;;;;;;;9.37;8.47;;;7.90;99.90;;;;;;4972037;28;20262;-67
2024/03/06 09:50:45;;;;;;;8.47;7.67;;;7.80;99.90;;;;;;4974051;28;20963;-67
2024/03/06 09:53:14;;;;;;;10.40;8.30;;;7.80;99.90;;;;;;4974100;28;20204;-67
2024/03/06 09:55:41;;;;;;;8.50;7.67;;;7.80;99.90;;;;;;4973878;28;20419;-67
2024/03/06 09:58:08;;;;;;;10.17;8.83;;;7.70;99.90;;;;;;4974098;28;20474;-67
2024/03/06 10:00:37;;;;;;;11.10;10.10;;;7.70;99.90;;;;;;4973755;28;20407;-66
2024/03/06 10:03:08;;;;;;;10.43;9.43;;;7.60;99.90;;;;;;4973632;28;20965;-67
2024/03/06 10:05:34;;;;;;;12.00;10.83;;;7.70;99.90;;;;;;4973791;28;20421;-67
2024/03/06 10:08:01;;;;;;;11.97;10.63;;;7.80;99.90;;;;;;4972988;28;20936;-67
2024/03/06 10:10:26;;;;;;;11.20;10.07;;;7.90;99.90;;;;;;4973372;28;20746;-67
2024/03/06 10:12:52;;;;;;;10.83;9.83;;;8.00;99.90;;;;;;4990234;28;20446;-67
2024/03/06 10:15:18;;;;;;;11.77;10.67;;;8.00;99.90;;;;;;4974249;28;20176;-67
2024/03/06 10:17:46;;;;;;;12.00;10.70;;;7.90;99.90;;;;;;4983395;28;20501;-67
2024/03/06 10:20:22;;;;;;;11.70;10.50;;;7.90;99.90;;;;;;4993015;28;20170;-67
2024/03/06 10:22:53;;;;;;;11.67;10.40;;;7.90;99.90;;;;;;4992828;28;20442;-67
2024/03/06 10:25:21;;;;;;;12.93;11.83;;;8.00;99.90;;;;;;4992947;28;20417;-67
2024/03/06 10:28:00;;;;;;;12.87;11.60;;;8.00;99.90;;;;;;4990569;28;20423;-67
2024/03/06 10:30:25;;;;;;;14.77;10.67;;;7.90;99.90;;;;;;4992570;28;20422;-67
2024/03/06 10:32:51;;;;;;;12.57;11.37;;;8.10;99.90;;;;;;4992730;28;20438;-67
2024/03/06 10:35:20;;;;;;;12.27;10.97;;;8.20;99.90;;;;;;4992697;28;20241;-67
2024/03/06 10:37:46;;;;;;;11.57;10.47;;;8.20;99.90;;;;;;4991903;28;20198;-67
2024/03/06 10:40:16;;;;;;;15.77;12.40;;;8.20;99.90;;;;;;4978992;28;20432;-67
2024/03/06 10:42:44;;;;;;;14.17;12.80;;;8.10;99.90;;;;;;4974389;28;20188;-67
2024/03/06 10:45:15;;;;;;;14.00;12.77;;;8.20;99.90;;;;;;4973201;28;20415;-67
2024/03/06 10:47:45;;;;;;;14.50;13.00;;;8.40;99.90;;;;;;4972524;28;20426;-67
2024/03/06 10:50:12;;;;;;;15.97;14.30;;;8.50;99.90;;;;;;4973465;28;20461;-67
2024/03/06 10:52:39;;;;;;;13.27;11.80;;;8.60;99.90;;;;;;4989050;28;20447;-67
2024/03/06 10:55:06;;;;;;;14.37;12.97;;;8.70;99.90;;;;;;4992599;28;20921;-67
2024/03/06 10:57:33;;;;;;;14.80;13.33;;;8.70;99.90;;;;;;4990183;28;20951;-67
2024/03/06 11:00:00;;;;;;;17.13;14.20;;;8.70;99.90;;;;;;4992419;28;20490;-67
2024/03/06 11:02:27;;;;;;;20.67;14.93;;;8.60;99.90;;;;;;4992214;28;20458;-67
2024/03/06 11:04:54;;;;;;;17.23;15.43;;;8.50;99.90;;;;;;4991783;28;20955;-67
2024/03/06 11:07:20;;;;;;;16.90;15.33;;;8.40;99.90;;;;;;4991420;28;20496;-67
2024/03/06 11:09:48;;;;;;;18.80;16.87;;;8.30;99.90;;;;;;4990749;28;20433;-67
2024/03/06 11:12:37;;;;;;;17.87;16.07;;;8.30;99.90;;;;;;4992240;28;20442;-67
2024/03/06 11:15:16;;;;;;;21.17;18.93;;;8.20;99.90;;;;;;4992009;28;20438;-67
2024/03/06 11:17:42;;;;;;;19.73;17.47;;;8.10;99.90;;;;;;5023154;28;20450;-67
2024/03/06 11:20:14;;;;;;;21.30;17.30;;;8.10;99.90;;;;;;4992384;28;20481;-67
2024/03/06 11:22:58;;;;;;;20.27;18.33;;;8.20;99.90;;;;;;4991835;28;20438;-67
2024/03/06 11:25:45;;;;;;;20.63;18.53;;;8.20;99.90;;;;;;4972896;28;20415;-67
2024/03/06 11:28:15;;;;;;;18.80;16.60;;;8.30;99.90;;;;;;4973270;28;20529;-67
2024/03/06 11:31:02;;;;;;;21.57;18.60;;;8.20;99.90;;;;;;4972820;28;20785;-67
2024/03/06 11:33:41;;;;;;;21.97;19.50;;;8.20;99.90;;;;;;4972758;28;20462;-67
2024/03/06 11:36:33;;;;;;;23.93;21.40;;;8.00;99.90;;;;;;4984712;28;20418;-67
2024/03/06 11:39:06;;;;;;;22.77;20.37;;;7.90;99.90;;;;;;4992111;28;20504;-67
2024/03/06 11:41:47;;;;;;;25.67;20.33;;;7.80;99.90;;;;;;4992210;28;20450;-67
2024/03/06 11:44:23;;;;;;;22.70;20.13;;;7.80;99.90;;;;;;4985732;28;20415;-67
2024/03/06 11:46:50;;;;;;;24.00;21.40;;;7.80;99.90;;;;;;4975700;28;20430;-67
2024/03/06 11:49:18;;;;;;;25.27;21.20;;;7.70;99.90;;;;;;4976179;28;20448;-67
2024/03/06 11:51:45;;;;;;;21.67;18.67;;;7.70;99.90;;;;;;4976106;28;20430;-67
2024/03/06 11:54:12;;;;;;;22.10;19.07;;;7.80;99.90;;;;;;4985427;28;20427;-67
2024/03/06 11:56:39;;;;;;;22.27;19.30;;;7.80;99.90;;;;;;4994814;28;20778;-67
2024/03/06 11:59:06;;;;;;;23.67;20.43;;;7.70;99.90;;;;;;4994006;28;20456;-67
2024/03/06 12:01:32;;;;;;;27.33;20.53;;;7.60;99.90;;;;;;4995191;28;20431;-67
2024/03/06 12:03:58;;;;;;;21.57;19.00;;;7.60;99.90;;;;;;4995641;28;20860;-66
2024/03/06 12:06:23;;;;;;;22.57;18.67;;;7.50;99.90;;;;;;4994146;28;20238;-66
2024/03/06 12:08:49;;;;;;;21.90;18.73;;;7.50;99.90;;;;;;4995069;28;20191;-67
2024/03/06 12:11:14;;;;;;;24.60;19.87;;;7.50;99.90;;;;;;4995413;28;20262;-67
2024/03/06 12:13:42;;;;;;;26.80;20.83;;;7.50;99.90;;;;;;4993657;28;20608;-67
2024/03/06 12:16:07;;;;;;;25.17;20.40;;;7.60;99.90;;;;;;4975680;28;20176;-67
2024/03/06 12:18:34;;;;;;;24.00;21.03;;;7.70;99.90;;;;;;4973665;28;20988;-68
2024/03/06 12:21:02;;;;;;;22.13;19.57;;;7.70;99.90;;;;;;4975677;28;20419;-67
2024/03/06 12:23:28;;;;;;;27.00;21.07;;;7.90;99.90;;;;;;4975545;28;20442;-67
2024/03/06 12:26:03;;;;;;;20.20;17.47;;;7.90;99.90;;;;;;4994430;28;20809;-67
2024/03/06 12:28:29;;;;;;;24.40;18.20;;;8.00;99.90;;;;;;4994160;28;20668;-67
2024/03/06 12:30:55;;;;;;;20.90;18.70;;;8.00;99.90;;;;;;4978003;28;20434;-67
2024/03/06 12:33:21;;;;;;;22.53;20.10;;;7.90;99.90;;;;;;4975343;28;20447;-67
2024/03/06 12:35:48;;;;;;;23.90;20.03;;;7.90;99.90;;;;;;4978999;28;20214;-66
2024/03/06 12:38:17;;;;;;;26.93;20.63;;;7.80;99.90;;;;;;4993869;28;20253;-67
2024/03/06 12:40:43;;;;;;;25.80;22.10;;;7.80;99.90;;;;;;4994718;28;20421;-67
2024/03/06 12:43:09;;;;;;;27.67;21.70;;;7.80;99.90;;;;;;4994560;28;20446;-67
2024/03/06 12:45:35;;;;;;;30.77;22.30;;;7.80;99.90;;;;;;4992997;28;20485;-66
2024/03/06 12:48:02;;;;;;;28.33;21.50;;;7.80;99.90;;;;;;4993926;28;20238;-67